Time;durP1;ratioP1;P1;durP2;ratioP2;P2;SDS_P1;SDS_P2;PMS_P1;PMS_P2;Temp;Humidity;BMP_temperature;BMP_pressure;BME280_temperature;BME280_humidity;BME280_pressure;Samples;Min_cycle;Max_cycle;Signal;HPM_P1;HPM_P2
2022/03/24 00:00:39;;;;;;;52.20;25.57;;;;;;;3.59;40.79;102270.72;1612354;87;21097;-76
2022/03/24 00:03:07;;;;;;;42.00;23.85;;;;;;;3.51;40.91;102268.26;1580591;87;21085;-76
2022/03/24 00:05:34;;;;;;;41.48;23.65;;;;;;;3.45;40.94;102268.02;1591962;88;21141;-76
2022/03/24 00:08:01;;;;;;;42.53;24.15;;;;;;;3.42;40.96;102273.88;1577166;89;21109;-76
2022/03/24 00:10:27;;;;;;;38.53;22.60;;;;;;;3.38;41.04;102275.85;1591884;89;25188;-76
2022/03/24 00:12:55;;;;;;;49.38;24.90;;;;;;;3.30;41.13;102272.98;1595434;87;21081;-76
2022/03/24 00:15:22;;;;;;;40.58;22.10;;;;;;;3.23;41.25;102276.11;1600134;89;21081;-76
2022/03/24 00:17:49;;;;;;;43.95;24.20;;;;;;;3.17;41.23;102275.86;1580809;89;21037;-76
2022/03/24 00:20:15;;;;;;;42.20;23.77;;;;;;;3.12;41.29;102272.23;1582575;90;28452;-76
2022/03/24 00:22:41;;;;;;;46.55;24.52;;;;;;;3.06;41.28;102283.52;1615165;87;21308;-76
2022/03/24 00:25:10;;;;;;;41.95;23.12;;;;;;;2.96;41.31;102275.88;1576993;89;21101;-77
2022/03/24 00:27:36;;;;;;;43.40;23.27;;;;;;;2.90;41.40;102274.75;1582506;88;21126;-77
2022/03/24 00:30:05;;;;;;;45.98;23.98;;;;;;;2.83;41.46;102274.89;1601806;88;21069;-76
2022/03/24 00:32:31;;;;;;;46.02;24.70;;;;;;;2.75;41.65;102276.25;1578635;88;20974;-76
2022/03/24 00:34:58;;;;;;;44.83;25.57;;;;;;;2.69;41.65;102272.56;1585462;88;20985;-76
2022/03/24 00:37:25;;;;;;;51.60;26.83;;;;;;;2.60;41.76;102275.19;1584458;88;20927;-76
2022/03/24 00:39:51;;;;;;;52.67;26.27;;;;;;;2.56;41.91;102278.86;1575897;89;21074;-76
2022/03/24 00:42:21;;;;;;;54.60;27.80;;;;;;;2.49;41.94;102275.16;1577192;89;20967;-76
2022/03/24 00:44:45;;;;;;;50.65;26.68;;;;;;;2.43;42.02;102279.12;1585082;88;21124;-76
2022/03/24 00:47:16;;;;;;;49.57;27.53;;;;;;;2.37;42.01;102267.37;1596431;89;21026;-76
2022/03/24 00:49:42;;;;;;;48.90;24.77;;;;;;;2.32;42.06;102273.55;1600440;88;21089;-76
2022/03/24 00:52:11;;;;;;;44.27;26.17;;;;;;;2.27;42.10;102273.75;1596139;88;21085;-76
2022/03/24 00:54:38;;;;;;;53.20;25.75;;;;;;;2.23;42.17;102268.04;1575855;89;21169;-76
2022/03/24 00:57:06;;;;;;;51.53;26.07;;;;;;;2.15;42.19;102268.09;1580936;88;21149;-76
2022/03/24 00:59:33;;;;;;;48.58;25.30;;;;;;;2.10;42.25;102271.72;1594255;89;21480;-76
2022/03/24 01:01:59;;;;;;;50.48;27.62;;;;;;;2.04;42.27;102271.88;1590415;89;21148;-76
2022/03/24 01:04:25;;;;;;;49.73;27.00;;;;;;;1.99;42.43;102272.54;1599565;88;21037;-76
2022/03/24 01:06:51;;;;;;;53.85;28.05;;;;;;;1.93;42.50;102276.09;1597003;88;21082;-76
2022/03/24 01:09:17;;;;;;;43.35;25.48;;;;;;;1.93;42.61;102279.04;1588884;89;21126;-76
2022/03/24 01:11:44;;;;;;;51.63;28.40;;;;;;;1.91;42.64;102280.25;1591397;89;22180;-76
2022/03/24 01:14:11;;;;;;;51.25;26.48;;;;;;;1.82;42.88;102272.57;1598644;88;21134;-76
2022/03/24 01:16:37;;;;;;;54.15;27.85;;;;;;;1.73;42.92;102268.32;1600228;89;21070;-76
2022/03/24 01:19:05;;;;;;;48.17;25.90;;;;;;;1.65;42.91;102271.38;1601329;89;21025;-76
2022/03/24 01:21:33;;;;;;;46.60;25.05;;;;;;;1.60;42.95;102275.80;1601238;89;21610;-76
2022/03/24 01:24:00;;;;;;;48.42;25.55;;;;;;;1.52;43.08;102274.19;1589280;87;21101;-76
2022/03/24 01:26:26;;;;;;;46.77;26.68;;;;;;;1.48;43.22;102274.84;1584767;87;21018;-76
2022/03/24 01:28:52;;;;;;;44.20;21.00;;;;;;;1.43;43.27;102274.16;1614492;87;20930;-76
2022/03/24 01:31:20;;;;;;;51.63;26.65;;;;;;;1.37;43.42;102277.28;1608639;87;20982;-76
2022/03/24 01:33:47;;;;;;;53.23;28.73;;;;;;;1.31;43.40;102273.16;1581003;89;21066;-76
2022/03/24 01:36:22;;;;;;;49.25;27.87;;;;;;;1.28;43.45;102271.34;1589343;87;21712;-76
2022/03/24 01:38:49;;;;;;;48.80;26.52;;;;;;;1.27;43.44;102268.72;1594965;89;21449;-77
2022/03/24 01:41:15;;;;;;;52.67;29.80;;;;;;;1.26;43.40;102274.22;1600732;89;20935;-76
2022/03/24 01:43:42;;;;;;;55.33;29.20;;;;;;;1.24;43.49;102267.30;1602852;87;21104;-76
2022/03/24 01:46:08;;;;;;;52.00;28.05;;;;;;;1.19;43.64;102272.17;1589441;89;22310;-76
2022/03/24 01:48:35;;;;;;;54.75;28.55;;;;;;;1.16;43.68;102268.59;1605539;89;21180;-76
2022/03/24 01:51:01;;;;;;;51.42;29.77;;;;;;;1.11;43.73;102268.38;1602073;87;21101;-76
2022/03/24 01:53:27;;;;;;;49.85;29.00;;;;;;;1.10;43.78;102274.27;1584959;89;21153;-76
2022/03/24 01:55:54;;;;;;;57.53;30.17;;;;;;;1.09;43.71;102277.61;1580851;89;21145;-76
2022/03/24 01:58:23;;;;;;;49.58;26.48;;;;;;;1.05;43.81;102268.47;1593951;87;21136;-75
2022/03/24 02:00:49;;;;;;;54.38;29.15;;;;;;;1.01;43.87;102273.84;1580796;90;21037;-75
2022/03/24 02:03:16;;;;;;;;;;;;;;;0.96;44.22;102274.02;1582297;90;21121;-75
2022/03/24 02:05:43;;;;;;;52.88;27.42;;;;;;;0.95;45.31;102274.82;1596588;87;27972;-75
2022/03/24 02:08:09;;;;;;;52.55;27.73;;;;;;;0.93;44.34;102278.96;1580380;88;21137;-75
2022/03/24 02:10:37;;;;;;;53.50;28.40;;;;;;;0.87;44.38;102274.44;1591927;89;21094;-75
2022/03/24 02:13:04;;;;;;;47.43;26.50;;;;;;;0.85;44.46;102277.30;1602256;87;21002;-75
2022/03/24 02:15:33;;;;;;;49.55;27.73;;;;;;;0.82;44.35;102282.64;1590946;88;20990;-75
2022/03/24 02:18:00;;;;;;;54.75;27.75;;;;;;;0.76;44.39;102284.48;1605536;89;21009;-75
2022/03/24 02:20:28;;;;;;;50.25;26.93;;;;;;;0.71;44.37;102279.55;1581913;88;21100;-76
2022/03/24 02:22:55;;;;;;;52.85;27.52;;;;;;;0.66;44.56;102277.17;1595297;87;21057;-76
2022/03/24 02:25:31;;;;;;;56.60;29.75;;;;;;;0.63;44.79;102285.92;1597941;88;21432;-76
2022/03/24 02:27:55;;;;;;;54.42;29.00;;;;;;;0.59;44.82;102285.29;1584782;89;21090;-76
2022/03/24 02:30:21;;;;;;;49.25;27.05;;;;;;;0.56;44.89;102280.92;1586912;88;21049;-76
2022/03/24 02:32:47;;;;;;;49.60;26.77;;;;;;;0.52;44.94;102279.02;1596975;89;21005;-76
2022/03/24 02:35:14;;;;;;;52.83;28.65;;;;;;;0.48;44.96;102278.80;1583928;88;20954;-76
2022/03/24 02:37:40;;;;;;;53.92;28.10;;;;;;;0.43;44.97;102279.84;1600551;88;21578;-76
2022/03/24 02:40:07;;;;;;;51.80;28.30;;;;;;;0.38;45.11;102273.64;1594017;88;21045;-76
2022/03/24 02:42:33;;;;;;;53.68;29.50;;;;;;;0.33;45.04;102275.95;1586857;89;21085;-76
2022/03/24 02:45:04;;;;;;;55.03;29.87;;;;;;;0.29;45.15;102276.58;1597888;88;21149;-77
2022/03/24 02:47:30;;;;;;;53.98;27.73;;;;;;;0.25;45.13;102278.88;1598807;89;21017;-76
2022/03/24 02:49:58;;;;;;;56.28;29.30;;;;;;;0.25;45.13;102278.88;1584725;89;21172;-76
2022/03/24 02:52:25;;;;;;;55.00;28.77;;;;;;;0.24;45.28;102274.59;1576679;90;21740;-77
2022/03/24 02:54:51;;;;;;;52.15;28.77;;;;;;;0.22;45.29;102277.05;1564392;89;504090;-76
2022/03/24 02:57:17;;;;;;;59.65;28.38;;;;;;;0.19;45.36;102277.28;1578407;89;21130;-76
2022/03/24 02:59:44;;;;;;;55.65;29.67;;;;;;;0.17;45.43;102280.14;1528108;91;21110;-76
2022/03/24 03:02:14;;;;;;;56.80;29.10;;;;;;;0.14;45.45;102271.08;1572408;89;21017;-76
2022/03/24 03:04:43;;;;;;;56.55;28.27;;;;;;;0.10;45.54;102272.98;1569812;90;21115;-76
2022/03/24 03:07:11;;;;;;;58.33;28.45;;;;;;;0.06;45.56;102274.89;1550291;89;21129;-76
2022/03/24 03:09:39;;;;;;;50.63;27.40;;;;;;;0.01;45.58;102272.09;1569883;91;21209;-76
2022/03/24 03:12:09;;;;;;;51.85;27.75;;;;;;;-0.03;45.58;102272.76;1572602;89;21032;-76
2022/03/24 03:14:39;;;;;;;53.23;27.05;;;;;;;-0.07;45.70;102281.02;1589474;89;21573;-75
2022/03/24 03:17:06;;;;;;;48.60;27.17;;;;;;;-0.10;45.67;102280.45;1578939;88;21070;-75
2022/03/24 03:19:34;;;;;;;60.15;27.95;;;;;;;-0.09;45.71;102287.69;1578424;89;21034;-76
2022/03/24 03:22:00;;;;;;;51.15;26.80;;;;;;;-0.11;45.73;102291.42;1577132;88;21811;-76
2022/03/24 03:24:27;;;;;;;55.83;27.45;;;;;;;-0.14;45.76;102288.70;1576840;88;21073;-75
2022/03/24 03:26:54;;;;;;;56.10;29.23;;;;;;;-0.18;45.80;102291.00;1607739;87;21100;-75
2022/03/24 03:29:22;;;;;;;;;;;;;;;-0.21;45.85;102291.70;1594615;88;21631;-75
2022/03/24 03:31:50;;;;;;;56.80;25.95;;;;;;;-0.22;46.79;102301.80;1609790;88;20520;-76
2022/03/24 03:34:24;;;;;;;52.13;26.00;;;;;;;-0.27;46.03;102295.58;1608679;87;22267;-76
2022/03/24 03:36:48;;;;;;;52.00;26.40;;;;;;;-0.30;46.04;102296.68;1603311;87;21036;-76
2022/03/24 03:39:14;;;;;;;46.63;26.40;;;;;;;-0.34;46.03;102300.33;1610250;87;21029;-76
2022/03/24 03:41:41;;;;;;;50.10;25.75;;;;;;;-0.38;46.11;102307.30;1617433;87;21495;-76
2022/03/24 03:44:07;;;;;;;47.27;26.02;;;;;;;-0.43;46.17;102292.59;1616450;87;21798;-76
2022/03/24 03:46:35;;;;;;;54.85;26.10;;;;;;;-0.42;46.12;102298.15;1617483;87;21598;-76
2022/03/24 03:49:03;;;;;;;55.15;27.82;;;;;;;-0.45;46.15;102300.52;1614546;88;21040;-76
2022/03/24 03:51:30;;;;;;;52.15;26.55;;;;;;;-0.49;46.25;102304.95;1617248;87;21435;-77
2022/03/24 03:53:57;;;;;;;51.23;27.58;;;;;;;-0.54;46.34;102302.19;1613966;88;21449;-76
2022/03/24 03:56:24;;;;;;;52.78;27.37;;;;;;;-0.57;46.50;102299.48;1618193;87;25748;-76
2022/03/24 03:58:50;;;;;;;51.48;28.10;;;;;;;-0.58;46.43;102301.92;1614492;87;22556;-76
2022/03/24 04:01:16;;;;;;;55.67;26.75;;;;;;;-0.62;46.52;102302.15;1594110;88;21523;-76
2022/03/24 04:03:42;;;;;;;50.30;26.45;;;;;;;-0.62;46.62;102299.61;1617440;87;21535;-77
2022/03/24 04:06:12;;;;;;;51.70;27.40;;;;;;;-0.64;46.59;102297.38;1598968;87;22746;-76
2022/03/24 04:08:41;;;;;;;48.28;25.15;;;;;;;-0.67;46.56;102298.48;1616664;87;21161;-76
2022/03/24 04:11:09;;;;;;;52.88;27.22;;;;;;;-0.69;46.55;102302.20;1614158;87;21820;-76
2022/03/24 04:13:42;;;;;;;49.38;26.00;;;;;;;-0.76;46.69;102302.64;1617309;88;21524;-76
2022/03/24 04:16:11;;;;;;;53.83;27.80;;;;;;;-0.82;46.75;102307.37;1614008;87;21668;-76
2022/03/24 04:18:43;;;;;;;45.90;26.35;;;;;;;-0.86;46.92;102306.71;1614959;87;21466;-76
2022/03/24 04:21:10;;;;;;;53.15;28.55;;;;;;;-0.87;47.07;102312.58;1609371;87;21527;-76
2022/03/24 04:23:41;;;;;;;51.83;27.22;;;;;;;-0.89;47.29;102315.42;1616865;88;21147;-76
2022/03/24 04:26:09;;;;;;;50.10;26.87;;;;;;;-0.92;47.27;102316.52;1614794;87;21159;-76
2022/03/24 04:28:35;;;;;;;60.52;28.35;;;;;;;-0.93;47.20;102311.34;1611405;87;21595;-76
2022/03/24 04:31:02;;;;;;;50.20;26.90;;;;;;;-0.93;47.35;102321.50;1617463;87;21495;-76
2022/03/24 04:33:28;;;;;;;45.78;25.52;;;;;;;-0.94;47.43;102313.41;1615249;87;21545;-75
2022/03/24 04:36:10;;;;;;;45.45;24.90;;;;;;;-0.97;47.37;102314.10;1614143;87;21483;-76
2022/03/24 04:38:38;;;;;;;49.75;27.07;;;;;;;-0.99;47.33;102306.79;1617128;87;20995;-76
2022/03/24 04:41:05;;;;;;;49.38;26.12;;;;;;;-0.98;47.33;102310.20;1617549;88;21624;-76
2022/03/24 04:43:32;;;;;;;46.58;24.35;;;;;;;-0.97;47.28;102305.22;1619797;87;21793;-76
2022/03/24 04:45:59;;;;;;;49.98;25.17;;;;;;;-0.97;47.28;102302.67;1617294;88;21168;-76
2022/03/24 04:48:25;;;;;;;47.65;25.40;;;;;;;-0.99;47.32;102308.06;1617132;87;22424;-76
2022/03/24 04:50:51;;;;;;;48.68;24.77;;;;;;;-1.04;47.43;102312.87;1631174;86;21006;-75
2022/03/24 04:53:18;;;;;;;44.83;24.55;;;;;;;-1.05;47.44;102311.16;1620900;87;20973;-75
2022/03/24 04:55:46;;;;;;;47.05;25.65;;;;;;;-1.07;47.47;102313.12;1616974;88;21547;-75
2022/03/24 04:58:15;;;;;;;46.88;24.98;;;;;;;-1.09;47.47;102314.69;1620866;87;21121;-75
2022/03/24 05:00:43;;;;;;;46.20;24.50;;;;;;;-1.09;47.54;102316.84;1616471;87;22406;-75
2022/03/24 05:03:09;;;;;;;41.40;23.47;;;;;;;-1.08;47.66;102311.37;1613453;87;21596;-75
2022/03/24 05:05:35;;;;;;;50.52;25.08;;;;;;;-1.09;47.74;102314.30;1612977;87;21079;-75
2022/03/24 05:08:02;;;;;;;44.27;22.82;;;;;;;-1.12;47.83;102306.50;1605491;87;21119;-76
2022/03/24 05:10:29;;;;;;;50.12;25.75;;;;;;;-1.12;47.91;102308.17;1616670;87;21474;-76
2022/03/24 05:12:55;;;;;;;55.75;24.95;;;;;;;-1.09;47.96;102308.34;1608295;87;21178;-75
2022/03/24 05:15:22;;;;;;;46.20;25.70;;;;;;;-1.03;47.99;102303.20;1611400;87;21589;-75
2022/03/24 05:17:48;;;;;;;47.27;26.33;;;;;;;-1.02;48.00;102303.68;1604318;87;21131;-75
2022/03/24 05:20:14;;;;;;;46.90;26.07;;;;;;;-0.98;48.01;102302.59;1615963;87;21027;-75
2022/03/24 05:22:43;;;;;;;44.93;25.20;;;;;;;-0.98;48.14;102306.40;1616125;87;21549;-75
2022/03/24 05:25:10;;;;;;;46.33;26.05;;;;;;;-1.00;48.17;102306.31;1593523;87;21726;-75
2022/03/24 05:27:36;;;;;;;38.02;20.15;;;;;;;-0.99;48.25;102308.06;1611490;88;21148;-75
2022/03/24 05:30:03;;;;;;;46.00;25.02;;;;;;;-0.96;48.43;102307.36;1615322;87;20980;-75
2022/03/24 05:32:29;;;;;;;54.67;27.10;;;;;;;-0.90;48.50;102300.98;1638745;87;21036;-75
2022/03/24 05:34:55;;;;;;;56.83;25.65;;;;;;;-0.83;48.61;102310.70;1618216;87;20952;-75
2022/03/24 05:37:22;;;;;;;51.75;27.62;;;;;;;-0.70;48.74;102309.73;1598048;87;20944;-76
2022/03/24 05:39:47;;;;;;;46.98;26.52;;;;;;;-0.59;48.91;102307.41;1613242;87;20998;-74
2022/03/24 05:42:13;;;;;;;54.90;27.70;;;;;;;-0.49;48.99;102302.41;1609076;87;21723;-73
2022/03/24 05:44:40;;;;;;;52.95;26.97;;;;;;;-0.36;49.16;102312.08;1617986;87;21205;-73
2022/03/24 05:47:06;;;;;;;52.80;26.83;;;;;;;-0.15;49.21;102301.33;1613889;87;20953;-73
2022/03/24 05:49:33;;;;;;;51.68;26.85;;;;;;;0.07;49.24;102305.48;1620916;87;21430;-73
2022/03/24 05:51:59;;;;;;;48.87;26.23;;;;;;;0.25;49.20;102305.20;1611117;86;21135;-73
2022/03/24 05:54:25;;;;;;;46.93;26.97;;;;;;;0.44;49.22;102311.25;1619884;86;21002;-73
2022/03/24 05:56:51;;;;;;;55.83;27.27;;;;;;;0.58;49.25;102319.17;1606371;87;21101;-73
2022/03/24 05:59:17;;;;;;;57.87;28.77;;;;;;;0.68;49.31;102310.34;1613908;87;21830;-73
2022/03/24 06:01:46;;;;;;;56.25;29.57;;;;;;;0.85;49.44;102318.05;1609558;87;21100;-73
2022/03/24 06:04:15;;;;;;;58.52;29.30;;;;;;;1.09;49.46;102321.31;1615703;87;21000;-73
2022/03/24 06:06:43;;;;;;;70.22;31.37;;;;;;;1.33;49.51;102319.58;1618487;87;21070;-73
2022/03/24 06:09:09;;;;;;;91.28;37.90;;;;;;;1.59;49.57;102319.94;1620476;87;21118;-73
2022/03/24 06:11:38;;;;;;;74.53;41.40;;;;;;;1.86;49.63;102313.59;1600644;88;21001;-73
2022/03/24 06:14:10;;;;;;;60.40;34.80;;;;;;;2.18;49.70;102315.45;1608363;87;21137;-74
2022/03/24 06:16:36;;;;;;;64.07;32.10;;;;;;;2.57;49.79;102315.08;1591151;87;21009;-74
2022/03/24 06:19:03;;;;;;;53.70;29.25;;;;;;;2.94;49.80;102314.55;1612835;87;21190;-75
2022/03/24 06:21:29;;;;;;;48.35;28.40;;;;;;;3.30;49.89;102310.46;1604978;86;21134;-75
2022/03/24 06:24:02;;;;;;;51.40;27.67;;;;;;;3.67;49.89;102314.06;1609082;87;21144;-75
2022/03/24 06:26:29;;;;;;;48.17;28.83;;;;;;;4.07;49.93;102314.32;1611481;87;21028;-75
2022/03/24 06:28:55;;;;;;;49.20;29.55;;;;;;;4.48;49.95;102311.98;1601701;87;21085;-74
2022/03/24 06:31:21;;;;;;;;;;;;;;;4.92;49.94;102313.52;1615331;87;21105;-74
2022/03/24 06:33:48;;;;;;;84.75;28.75;;;;;;;5.29;50.16;102318.16;1602168;87;20637;-75
2022/03/24 06:36:15;;;;;;;54.23;30.32;;;;;;;5.64;49.91;102318.89;1607858;87;21117;-75
2022/03/24 06:38:41;;;;;;;52.50;30.77;;;;;;;6.03;49.93;102323.92;1556139;89;21125;-75
2022/03/24 06:41:08;;;;;;;49.38;30.10;;;;;;;6.42;49.94;102318.63;1610134;87;21513;-75
2022/03/24 06:43:34;;;;;;;52.65;31.40;;;;;;;6.78;49.93;102318.75;1603184;87;21102;-75
2022/03/24 06:46:01;;;;;;;;;;;;;;;7.13;49.92;102319.67;1602627;87;21105;-75
2022/03/24 06:48:31;;;;;;;44.00;30.70;;;;;;;7.48;50.00;102320.93;1603219;87;20208;-75
2022/03/24 06:50:57;;;;;;;45.27;30.03;;;;;;;7.87;49.98;102314.52;1606254;87;21124;-75
2022/03/24 06:53:23;;;;;;;43.87;30.00;;;;;;;8.20;49.96;102313.09;1617208;87;21060;-75
2022/03/24 06:55:53;;;;;;;40.60;28.12;;;;;;;8.47;49.92;102316.24;1617732;87;21786;-75
2022/03/24 06:58:19;;;;;;;42.77;29.00;;;;;;;8.74;49.90;102326.23;1601590;87;21082;-75
2022/03/24 07:00:45;;;;;;;40.70;27.17;;;;;;;8.92;49.88;102325.67;1599331;87;21057;-75
2022/03/24 07:03:11;;;;;;;48.57;29.53;;;;;;;9.12;49.85;102321.73;1607438;87;20986;-75
2022/03/24 07:05:37;;;;;;;42.30;28.57;;;;;;;9.26;49.87;102325.42;1611360;87;21022;-75
2022/03/24 07:08:04;;;;;;;42.75;27.58;;;;;;;9.50;49.97;102324.06;1601855;87;21584;-75
2022/03/24 07:10:31;;;;;;;39.30;27.48;;;;;;;9.96;50.15;102330.33;1611380;86;21108;-75
2022/03/24 07:12:57;;;;;;;;;;;;;;;10.54;49.90;102325.91;1614884;87;21092;-75
2022/03/24 07:15:26;;;;;;;36.24;26.09;;;;;;;11.03;49.23;102323.81;965905;87;10000715;-75
2022/03/24 07:17:55;;;;;;;;;;;;;;;11.30;49.25;102322.33;87886;90;10017062;-74
2022/03/24 07:20:23;;;;;;;39.80;26.30;;;;;;;11.34;48.86;102322.80;825853;87;10000667;-75
2022/03/24 07:22:49;;;;;;;39.30;28.00;;;;;;;11.09;48.96;102299.28;1611333;87;20994;-75
2022/03/24 07:25:15;;;;;;;41.95;29.05;;;;;;;11.09;48.96;102299.28;1607734;87;21433;-75
2022/03/24 07:27:42;;;;;;;37.57;27.47;;;;;;;11.20;49.19;102320.09;1624460;87;20882;-75
2022/03/24 07:30:10;;;;;;;37.53;27.07;;;;;;;11.27;49.24;102318.00;1626095;87;21099;-75
2022/03/24 07:32:37;;;;;;;43.80;28.15;;;;;;;11.39;49.24;102321.12;1613107;87;21001;-75
2022/03/24 07:35:05;;;;;;;37.58;26.85;;;;;;;11.50;49.16;102316.42;1624326;86;21043;-74
2022/03/24 07:37:32;;;;;;;36.55;26.68;;;;;;;11.59;49.19;102319.52;1621201;86;21051;-74
2022/03/24 07:39:58;;;;;;;39.45;27.70;;;;;;;11.72;49.09;102323.06;1613370;87;20927;-74
2022/03/24 07:42:24;;;;;;;32.75;26.42;;;;;;;11.80;48.94;102323.58;1620331;86;21455;-74
2022/03/24 07:44:50;;;;;;;37.40;26.60;;;;;;;11.91;49.09;102329.70;1610604;87;21018;-74
2022/03/24 07:47:17;;;;;;;35.63;25.95;;;;;;;12.10;49.16;102329.78;1610977;87;21081;-74
2022/03/24 07:49:46;;;;;;;32.48;23.45;;;;;;;12.22;49.02;102326.81;1610746;87;21101;-74
2022/03/24 07:52:14;;;;;;;31.07;20.25;;;;;;;12.31;49.08;102326.42;1621715;86;21118;-74
2022/03/24 07:55:00;;;;;;;25.68;18.60;;;;;;;12.43;48.99;102329.94;1617201;87;21073;-75
2022/03/24 07:57:32;;;;;;;28.65;20.05;;;;;;;12.52;48.83;102331.66;1611588;87;21050;-75
2022/03/24 08:00:00;;;;;;;27.48;20.45;;;;;;;12.66;48.65;102328.69;1615600;87;21099;-75
2022/03/24 08:02:27;;;;;;;29.07;21.73;;;;;;;12.67;48.71;102332.14;1604816;87;21092;-75
2022/03/24 08:04:53;;;;;;;28.30;20.07;;;;;;;12.74;48.79;102330.00;1619557;86;21378;-75
2022/03/24 08:07:20;;;;;;;22.45;17.95;;;;;;;12.88;48.62;102321.81;1618084;87;21127;-75
2022/03/24 08:09:48;;;;;;;26.70;18.57;;;;;;;13.08;48.76;102323.98;1621170;87;21630;-75
2022/03/24 08:12:14;;;;;;;29.42;20.77;;;;;;;13.36;48.87;102331.83;1625034;87;21101;-75
2022/03/24 08:14:40;;;;;;;34.80;24.57;;;;;;;13.55;48.84;102327.03;1619351;87;22153;-75
2022/03/24 08:17:07;;;;;;;37.25;26.25;;;;;;;13.68;48.55;102325.28;1624655;86;21464;-75
2022/03/24 08:19:34;;;;;;;43.60;26.53;;;;;;;13.50;48.22;102328.36;1610277;87;21032;-75
2022/03/24 08:22:00;;;;;;;154.18;44.45;;;;;;;13.40;48.12;102320.14;1612887;87;21141;-75
2022/03/24 08:24:27;;;;;;;32.93;22.07;;;;;;;13.53;47.93;102323.56;1619015;87;21091;-75
2022/03/24 08:26:53;;;;;;;;;;;;;;;13.65;47.71;102323.98;1627481;87;21099;-75
2022/03/24 08:29:19;;;;;;;26.13;19.10;;;;;;;13.73;46.99;102323.11;1598791;88;20246;-74
2022/03/24 08:31:47;;;;;;;23.45;20.17;;;;;;;13.69;47.28;102321.37;1611641;87;21131;-75
2022/03/24 08:34:14;;;;;;;25.60;17.25;;;;;;;13.68;47.17;102323.55;1613798;87;21589;-75
2022/03/24 08:36:40;;;;;;;21.97;15.23;;;;;;;13.55;47.01;102327.89;1616545;87;21113;-78
2022/03/24 08:39:06;;;;;;;29.25;19.17;;;;;;;13.41;46.89;102327.50;1620781;87;21106;-75
2022/03/24 08:41:32;;;;;;;29.63;19.33;;;;;;;13.30;46.77;102333.99;1628721;87;21099;-75
2022/03/24 08:43:58;;;;;;;89.07;28.45;;;;;;;13.19;46.69;102331.39;1616209;87;21079;-75
2022/03/24 08:46:25;;;;;;;18.37;15.00;;;;;;;13.10;46.53;102331.34;1594446;88;21159;-75
2022/03/24 08:48:54;;;;;;;18.77;14.53;;;;;;;12.94;46.25;102333.52;1623352;87;21133;-75
2022/03/24 08:51:22;;;;;;;24.02;15.30;;;;;;;12.75;46.17;102337.80;1625644;87;22200;-75
2022/03/24 08:53:48;;;;;;;19.35;13.30;;;;;;;12.64;46.08;102333.44;1618542;87;21135;-75
2022/03/24 08:56:17;;;;;;;18.90;13.53;;;;;;;12.53;45.85;102330.80;1620381;87;21174;-75
2022/03/24 08:58:48;;;;;;;44.15;15.05;;;;;;;12.43;45.74;102329.06;1619119;87;25229;-75
2022/03/24 09:01:15;;;;;;;21.60;12.80;;;;;;;12.32;45.51;102329.02;1622161;87;21825;-75
2022/03/24 09:03:41;;;;;;;18.23;12.17;;;;;;;12.19;45.34;102328.53;1612923;87;21540;-75
2022/03/24 09:06:07;;;;;;;18.35;13.08;;;;;;;12.06;45.19;102324.14;1612070;87;21130;-75
2022/03/24 09:08:34;;;;;;;17.73;12.40;;;;;;;12.02;45.13;102330.16;1616119;87;21081;-75
2022/03/24 09:11:00;;;;;;;23.18;11.90;;;;;;;12.00;45.00;102337.93;1609946;87;21113;-75
2022/03/24 09:13:26;;;;;;;18.93;12.40;;;;;;;11.97;44.83;102335.32;1621122;87;28313;-75
2022/03/24 09:15:53;;;;;;;15.35;11.22;;;;;;;11.93;44.60;102333.60;1597211;88;21131;-75
2022/03/24 09:18:19;;;;;;;16.10;10.10;;;;;;;11.86;44.46;102330.53;1591869;87;21095;-75
2022/03/24 09:20:46;;;;;;;15.05;9.85;;;;;;;11.81;44.32;102334.39;1606941;87;21533;-75
2022/03/24 09:23:12;;;;;;;14.50;10.30;;;;;;;11.78;44.22;102329.61;1605208;87;21008;-75
2022/03/24 09:25:39;;;;;;;10.70;7.92;;;;;;;11.78;44.16;102329.61;1606156;87;25247;-75
2022/03/24 09:28:06;;;;;;;11.65;9.00;;;;;;;11.78;44.01;102324.00;1616692;87;21496;-75
2022/03/24 09:30:34;;;;;;;13.00;8.83;;;;;;;11.79;43.81;102320.98;1609759;87;21069;-75
2022/03/24 09:33:00;;;;;;;10.78;8.23;;;;;;;11.79;43.70;102319.69;1617091;87;21779;-75
2022/03/24 09:35:26;;;;;;;9.60;8.00;;;;;;;11.73;43.60;102323.50;1617662;86;21107;-75
2022/03/24 09:37:52;;;;;;;10.27;8.07;;;;;;;11.71;43.48;102319.60;1624243;87;22256;-75
2022/03/24 09:40:19;;;;;;;10.43;7.73;;;;;;;11.74;43.29;102313.58;1618717;87;21534;-75
2022/03/24 09:42:47;;;;;;;8.15;6.53;;;;;;;11.76;43.19;102321.80;1616527;87;21383;-75
2022/03/24 09:45:13;;;;;;;7.28;6.40;;;;;;;11.75;43.12;102316.60;1621455;86;21171;-75
2022/03/24 09:47:41;;;;;;;11.33;5.97;;;;;;;11.76;42.99;102319.63;1615766;87;21137;-76
2022/03/24 09:50:09;;;;;;;7.30;6.35;;;;;;;11.78;42.86;102320.12;1618754;87;21171;-76
2022/03/24 09:52:35;;;;;;;6.47;5.67;;;;;;;11.79;42.70;102319.26;1621654;87;21071;-75
2022/03/24 09:55:02;;;;;;;6.93;5.43;;;;;;;11.78;42.58;102315.36;1612604;86;20983;-75
2022/03/24 09:57:28;;;;;;;5.35;4.83;;;;;;;11.78;42.51;102312.34;1602290;88;21326;-75
2022/03/24 09:59:54;;;;;;;6.92;5.40;;;;;;;11.84;42.46;102320.16;1629903;87;21093;-75
2022/03/24 10:02:21;;;;;;;7.35;5.42;;;;;;;11.88;42.27;102313.27;1617027;87;21044;-75
2022/03/24 10:05:00;;;;;;;8.80;6.00;;;;;;;11.88;42.07;102315.43;1627851;87;21101;-75
2022/03/24 10:07:28;;;;;;;6.42;5.22;;;;;;;11.93;41.91;102311.56;1615705;87;21085;-75
2022/03/24 10:09:59;;;;;;;7.58;5.17;;;;;;;11.92;41.95;102313.30;1631951;87;21059;-75
2022/03/24 10:12:37;;;;;;;6.65;4.87;;;;;;;11.96;41.86;102310.72;1621415;87;21077;-75
2022/03/24 10:15:13;;;;;;;5.62;3.92;;;;;;;12.03;41.79;102309.86;1602696;87;21634;-75
2022/03/24 10:17:50;;;;;;;3.83;3.37;;;;;;;12.11;41.59;102306.45;1608858;87;21077;-75
2022/03/24 10:20:18;;;;;;;6.58;3.77;;;;;;;12.19;41.46;102308.65;1608060;87;21546;-75
2022/03/24 10:22:55;;;;;;;;;;;;;;;12.22;41.35;102304.77;1606794;88;21088;-75
2022/03/24 10:25:25;;;;;;;4.10;2.67;;;;;;;12.23;40.73;102310.39;1617394;87;20160;-75
2022/03/24 10:28:08;;;;;;;4.15;3.70;;;;;;;12.31;41.17;102312.16;1603593;86;21093;-75
2022/03/24 10:30:51;;;;;;;3.98;3.35;;;;;;;12.33;40.83;102303.95;1586729;88;21112;-75
2022/03/24 10:33:36;;;;;;;6.67;3.85;;;;;;;12.35;40.93;102302.23;1590953;88;26543;-75
2022/03/24 10:36:18;;;;;;;76.45;14.10;;;;;;;12.36;40.72;102301.37;1600840;88;21093;-75
2022/03/24 10:38:49;;;;;;;5.05;3.35;;;;;;;12.35;40.61;102296.61;1594095;88;21022;-75
2022/03/24 10:41:28;;;;;;;4.20;3.80;;;;;;;12.36;40.50;102287.97;1589261;88;21546;-75
2022/03/24 10:44:08;;;;;;;5.35;4.53;;;;;;;12.42;40.32;102291.02;1577813;88;21026;-75
2022/03/24 10:46:41;;;;;;;6.78;3.67;;;;;;;12.46;40.33;102289.73;1590362;88;21094;-75
2022/03/24 10:49:23;;;;;;;5.17;4.03;;;;;;;12.54;40.31;102289.72;1581862;88;21085;-75
2022/03/24 10:51:51;;;;;;;7.55;4.87;;;;;;;12.62;40.21;102285.42;1585777;88;21580;-75
2022/03/24 10:54:41;;;;;;;5.90;4.55;;;;;;;12.65;39.94;102289.75;1586818;88;21113;-75
2022/03/24 10:57:13;;;;;;;5.78;4.80;;;;;;;12.59;39.66;102275.89;1606597;88;21085;-74
2022/03/24 10:59:58;;;;;;;10.00;5.17;;;;;;;12.67;39.89;102281.53;1591111;88;21391;-75
2022/03/24 11:02:23;;;;;;;9.05;5.12;;;;;;;12.72;39.70;102278.52;1589221;88;21058;-75
2022/03/24 11:04:50;;;;;;;7.90;4.60;;;;;;;12.75;39.75;102275.93;1603577;88;21105;-75
2022/03/24 11:07:26;;;;;;;8.73;5.12;;;;;;;12.85;39.66;102277.25;1590880;88;21101;-75
2022/03/24 11:09:54;;;;;;;11.43;4.85;;;;;;;12.94;39.55;102268.60;1588834;88;21351;-75
2022/03/24 11:12:32;;;;;;;5.30;4.58;;;;;;;13.00;39.45;102267.28;1593815;88;21113;-75
2022/03/24 11:15:04;;;;;;;9.78;4.87;;;;;;;13.05;39.36;102277.66;1600595;88;21173;-75
2022/03/24 11:17:34;;;;;;;6.25;5.28;;;;;;;13.07;39.29;102269.44;1595985;88;21573;-75
2022/03/24 11:20:21;;;;;;;6.80;5.20;;;;;;;13.13;39.32;102265.11;1589340;88;21046;-75